sensor_id;sensor_type;location;lat;lon;timestamp;temperature;humidity
8832;DHT22;4452;50.756;4.472;2022-08-19T00:01:22;18.80;99.90
8832;DHT22;4452;50.756;4.472;2022-08-19T00:03:48;18.80;99.90
8832;DHT22;4452;50.756;4.472;2022-08-19T00:06:14;18.70;99.90
8832;DHT22;4452;50.756;4.472;2022-08-19T00:08:40;18.70;99.90
8832;DHT22;4452;50.756;4.472;2022-08-19T00:11:06;18.70;99.90
8832;DHT22;4452;50.756;4.472;2022-08-19T00:13:33;18.70;99.90
8832;DHT22;4452;50.756;4.472;2022-08-19T00:15:59;18.60;99.90
8832;DHT22;4452;50.756;4.472;2022-08-19T00:18:26;18.60;99.90
8832;DHT22;4452;50.756;4.472;2022-08-19T00:20:52;18.60;99.90
8832;DHT22;4452;50.756;4.472;2022-08-19T00:23:18;18.60;99.90
8832;DHT22;4452;50.756;4.472;2022-08-19T00:25:44;18.50;99.90
8832;DHT22;4452;50.756;4.472;2022-08-19T00:28:10;18.50;99.90
8832;DHT22;4452;50.756;4.472;2022-08-19T00:30:36;18.60;99.90
8832;DHT22;4452;50.756;4.472;2022-08-19T00:33:02;18.50;99.90
8832;DHT22;4452;50.756;4.472;2022-08-19T00:35:28;18.40;99.90
8832;DHT22;4452;50.756;4.472;2022-08-19T00:37:54;18.30;99.90
8832;DHT22;4452;50.756;4.472;2022-08-19T00:40:20;18.20;99.90
8832;DHT22;4452;50.756;4.472;2022-08-19T00:42:46;18.20;99.90
8832;DHT22;4452;50.756;4.472;2022-08-19T00:45:17;18.20;99.90
8832;DHT22;4452;50.756;4.472;2022-08-19T00:47:44;18.10;99.90
8832;DHT22;4452;50.756;4.472;2022-08-19T00:50:11;18.00;99.90
8832;DHT22;4452;50.756;4.472;2022-08-19T00:52:43;17.90;99.90
8832;DHT22;4452;50.756;4.472;2022-08-19T00:55:14;18.00;99.90
8832;DHT22;4452;50.756;4.472;2022-08-19T00:57:46;17.90;99.90
8832;DHT22;4452;50.756;4.472;2022-08-19T01:00:15;17.90;99.90
8832;DHT22;4452;50.756;4.472;2022-08-19T01:02:43;17.80;99.90
8832;DHT22;4452;50.756;4.472;2022-08-19T01:05:20;17.80;99.90
8832;DHT22;4452;50.756;4.472;2022-08-19T01:07:48;17.80;99.90
8832;DHT22;4452;50.756;4.472;2022-08-19T01:10:19;17.80;99.90
8832;DHT22;4452;50.756;4.472;2022-08-19T01:12:49;17.70;99.90
8832;DHT22;4452;50.756;4.472;2022-08-19T01:15:19;17.80;99.90
8832;DHT22;4452;50.756;4.472;2022-08-19T01:17:45;17.70;99.90
8832;DHT22;4452;50.756;4.472;2022-08-19T01:20:20;17.70;99.90
8832;DHT22;4452;50.756;4.472;2022-08-19T01:22:47;17.70;99.90
8832;DHT22;4452;50.756;4.472;2022-08-19T01:25:19;17.70;99.90
8832;DHT22;4452;50.756;4.472;2022-08-19T01:27:47;17.70;99.90
8832;DHT22;4452;50.756;4.472;2022-08-19T01:30:17;17.70;99.90
8832;DHT22;4452;50.756;4.472;2022-08-19T01:32:43;17.70;99.90
8832;DHT22;4452;50.756;4.472;2022-08-19T01:35:09;17.60;99.90
8832;DHT22;4452;50.756;4.472;2022-08-19T01:38:03;17.60;99.90
8832;DHT22;4452;50.756;4.472;2022-08-19T01:40:34;17.60;99.90
8832;DHT22;4452;50.756;4.472;2022-08-19T01:43:00;17.50;99.90
8832;DHT22;4452;50.756;4.472;2022-08-19T01:45:29;17.50;99.90
8832;DHT22;4452;50.756;4.472;2022-08-19T01:47:55;17.50;99.90
8832;DHT22;4452;50.756;4.472;2022-08-19T01:50:21;17.40;99.90
8832;DHT22;4452;50.756;4.472;2022-08-19T01:52:47;17.40;99.90
8832;DHT22;4452;50.756;4.472;2022-08-19T01:55:17;17.40;99.90
8832;DHT22;4452;50.756;4.472;2022-08-19T01:57:47;17.40;99.90
8832;DHT22;4452;50.756;4.472;2022-08-19T02:00:18;17.30;99.90
8832;DHT22;4452;50.756;4.472;2022-08-19T02:02:44;17.30;99.90
8832;DHT22;4452;50.756;4.472;2022-08-19T02:05:11;17.30;99.90
8832;DHT22;4452;50.756;4.472;2022-08-19T02:07:38;17.30;99.90
8832;DHT22;4452;50.756;4.472;2022-08-19T02:10:06;17.20;99.90
8832;DHT22;4452;50.756;4.472;2022-08-19T02:12:33;17.20;99.90
8832;DHT22;4452;50.756;4.472;2022-08-19T02:14:59;17.20;99.90
8832;DHT22;4452;50.756;4.472;2022-08-19T02:17:27;17.10;99.90
8832;DHT22;4452;50.756;4.472;2022-08-19T02:19:54;17.10;99.90
8832;DHT22;4452;50.756;4.472;2022-08-19T02:22:21;17.00;99.90
8832;DHT22;4452;50.756;4.472;2022-08-19T02:24:46;17.00;99.90
8832;DHT22;4452;50.756;4.472;2022-08-19T02:27:14;16.90;99.90
8832;DHT22;4452;50.756;4.472;2022-08-19T02:29:39;16.90;99.90
8832;DHT22;4452;50.756;4.472;2022-08-19T02:32:07;16.80;99.90
8832;DHT22;4452;50.756;4.472;2022-08-19T02:34:33;16.80;99.90
8832;DHT22;4452;50.756;4.472;2022-08-19T02:36:59;16.80;99.90
8832;DHT22;4452;50.756;4.472;2022-08-19T02:39:24;16.80;99.90
8832;DHT22;4452;50.756;4.472;2022-08-19T02:41:50;16.80;99.90
8832;DHT22;4452;50.756;4.472;2022-08-19T02:44:17;16.70;99.90
8832;DHT22;4452;50.756;4.472;2022-08-19T02:46:45;16.70;99.90
8832;DHT22;4452;50.756;4.472;2022-08-19T02:49:11;16.70;99.90
8832;DHT22;4452;50.756;4.472;2022-08-19T02:51:42;16.70;99.90
8832;DHT22;4452;50.756;4.472;2022-08-19T02:54:09;16.60;99.90
8832;DHT22;4452;50.756;4.472;2022-08-19T02:56:37;16.60;99.90
8832;DHT22;4452;50.756;4.472;2022-08-19T02:59:03;16.60;99.90
8832;DHT22;4452;50.756;4.472;2022-08-19T03:01:34;16.60;99.90
8832;DHT22;4452;50.756;4.472;2022-08-19T03:04:03;16.60;99.90
8832;DHT22;4452;50.756;4.472;2022-08-19T03:06:30;16.60;99.90
8832;DHT22;4452;50.756;4.472;2022-08-19T03:08:56;16.50;99.90
8832;DHT22;4452;50.756;4.472;2022-08-19T03:11:28;16.50;99.90
8832;DHT22;4452;50.756;4.472;2022-08-19T03:13:55;16.50;99.90
8832;DHT22;4452;50.756;4.472;2022-08-19T03:16:22;16.50;99.90
8832;DHT22;4452;50.756;4.472;2022-08-19T03:18:49;16.40;99.90
8832;DHT22;4452;50.756;4.472;2022-08-19T03:21:21;16.40;99.90
8832;DHT22;4452;50.756;4.472;2022-08-19T03:23:47;16.40;99.90
8832;DHT22;4452;50.756;4.472;2022-08-19T03:26:13;16.40;99.90
8832;DHT22;4452;50.756;4.472;2022-08-19T03:28:43;16.40;99.90
8832;DHT22;4452;50.756;4.472;2022-08-19T03:31:13;16.30;99.90
8832;DHT22;4452;50.756;4.472;2022-08-19T03:33:40;16.30;99.90
8832;DHT22;4452;50.756;4.472;2022-08-19T03:36:09;16.20;99.90
8832;DHT22;4452;50.756;4.472;2022-08-19T03:38:37;16.20;99.90
8832;DHT22;4452;50.756;4.472;2022-08-19T03:41:06;16.20;99.90
8832;DHT22;4452;50.756;4.472;2022-08-19T03:43:35;16.20;99.90
8832;DHT22;4452;50.756;4.472;2022-08-19T03:46:07;16.20;99.90
8832;DHT22;4452;50.756;4.472;2022-08-19T03:48:34;16.10;99.90
8832;DHT22;4452;50.756;4.472;2022-08-19T03:51:00;16.10;99.90
8832;DHT22;4452;50.756;4.472;2022-08-19T03:53:30;16.10;99.90
8832;DHT22;4452;50.756;4.472;2022-08-19T03:55:57;16.00;99.90
8832;DHT22;4452;50.756;4.472;2022-08-19T03:58:27;16.00;99.90
8832;DHT22;4452;50.756;4.472;2022-08-19T04:00:57;16.00;99.90
8832;DHT22;4452;50.756;4.472;2022-08-19T04:03:24;16.00;99.90
8832;DHT22;4452;50.756;4.472;2022-08-19T04:05:50;16.00;99.90
8832;DHT22;4452;50.756;4.472;2022-08-19T04:08:16;15.90;99.90
8832;DHT22;4452;50.756;4.472;2022-08-19T04:10:46;15.90;99.90
8832;DHT22;4452;50.756;4.472;2022-08-19T04:13:12;15.80;99.90
8832;DHT22;4452;50.756;4.472;2022-08-19T04:15:42;15.80;99.90
8832;DHT22;4452;50.756;4.472;2022-08-19T04:18:09;15.80;99.90
8832;DHT22;4452;50.756;4.472;2022-08-19T04:20:46;15.80;99.90
8832;DHT22;4452;50.756;4.472;2022-08-19T04:23:13;15.80;99.90
8832;DHT22;4452;50.756;4.472;2022-08-19T04:25:41;15.90;99.90
8832;DHT22;4452;50.756;4.472;2022-08-19T04:28:07;15.80;99.90
8832;DHT22;4452;50.756;4.472;2022-08-19T04:30:43;15.80;99.90
8832;DHT22;4452;50.756;4.472;2022-08-19T04:33:11;15.80;99.90
8832;DHT22;4452;50.756;4.472;2022-08-19T04:35:42;15.80;99.90
8832;DHT22;4452;50.756;4.472;2022-08-19T04:38:08;15.80;99.90
8832;DHT22;4452;50.756;4.472;2022-08-19T04:40:40;15.80;99.90
8832;DHT22;4452;50.756;4.472;2022-08-19T04:43:24;15.80;99.90
8832;DHT22;4452;50.756;4.472;2022-08-19T04:45:50;15.80;99.90
8832;DHT22;4452;50.756;4.472;2022-08-19T04:48:16;15.70;99.90
8832;DHT22;4452;50.756;4.472;2022-08-19T04:50:45;15.70;99.90
8832;DHT22;4452;50.756;4.472;2022-08-19T04:53:10;15.70;99.90
8832;DHT22;4452;50.756;4.472;2022-08-19T04:55:41;15.70;99.90
8832;DHT22;4452;50.756;4.472;2022-08-19T04:58:07;15.70;99.90
8832;DHT22;4452;50.756;4.472;2022-08-19T05:00:33;15.70;99.90
8832;DHT22;4452;50.756;4.472;2022-08-19T05:02:59;15.70;99.90
8832;DHT22;4452;50.756;4.472;2022-08-19T05:05:24;15.60;99.90
8832;DHT22;4452;50.756;4.472;2022-08-19T05:07:50;15.60;99.90
8832;DHT22;4452;50.756;4.472;2022-08-19T05:10:15;15.60;99.90
8832;DHT22;4452;50.756;4.472;2022-08-19T05:12:41;15.70;99.90
8832;DHT22;4452;50.756;4.472;2022-08-19T05:15:07;15.80;99.90
8832;DHT22;4452;50.756;4.472;2022-08-19T05:17:36;15.70;99.90
8832;DHT22;4452;50.756;4.472;2022-08-19T05:20:04;15.80;99.90
8832;DHT22;4452;50.756;4.472;2022-08-19T05:22:49;15.80;99.90
8832;DHT22;4452;50.756;4.472;2022-08-19T05:25:18;15.80;99.90
8832;DHT22;4452;50.756;4.472;2022-08-19T05:27:44;15.80;99.90
8832;DHT22;4452;50.756;4.472;2022-08-19T05:30:11;15.70;99.90
8832;DHT22;4452;50.756;4.472;2022-08-19T05:32:38;15.70;99.90
8832;DHT22;4452;50.756;4.472;2022-08-19T05:35:05;15.70;99.90
8832;DHT22;4452;50.756;4.472;2022-08-19T05:37:31;15.70;99.90
8832;DHT22;4452;50.756;4.472;2022-08-19T05:39:56;15.60;99.90
8832;DHT22;4452;50.756;4.472;2022-08-19T05:42:23;15.60;99.90
8832;DHT22;4452;50.756;4.472;2022-08-19T05:44:50;15.70;99.90
8832;DHT22;4452;50.756;4.472;2022-08-19T05:47:16;15.70;99.90
8832;DHT22;4452;50.756;4.472;2022-08-19T05:49:44;15.80;99.90
8832;DHT22;4452;50.756;4.472;2022-08-19T05:52:13;15.90;99.90
8832;DHT22;4452;50.756;4.472;2022-08-19T05:54:41;16.00;99.90
8832;DHT22;4452;50.756;4.472;2022-08-19T05:57:08;15.90;99.90
8832;DHT22;4452;50.756;4.472;2022-08-19T05:59:34;16.00;99.90
8832;DHT22;4452;50.756;4.472;2022-08-19T06:02:03;16.10;99.90
8832;DHT22;4452;50.756;4.472;2022-08-19T06:04:29;16.10;99.90
8832;DHT22;4452;50.756;4.472;2022-08-19T06:06:55;16.20;99.90
8832;DHT22;4452;50.756;4.472;2022-08-19T06:09:22;16.30;99.90
8832;DHT22;4452;50.756;4.472;2022-08-19T06:11:59;16.40;99.90
8832;DHT22;4452;50.756;4.472;2022-08-19T06:14:28;16.40;99.90
8832;DHT22;4452;50.756;4.472;2022-08-19T06:16:54;16.50;99.90
8832;DHT22;4452;50.756;4.472;2022-08-19T06:19:21;16.70;99.90
8832;DHT22;4452;50.756;4.472;2022-08-19T06:21:50;16.80;99.90
8832;DHT22;4452;50.756;4.472;2022-08-19T06:24:19;16.90;99.90
8832;DHT22;4452;50.756;4.472;2022-08-19T06:26:47;17.10;99.90
8832;DHT22;4452;50.756;4.472;2022-08-19T06:29:16;17.20;99.90
8832;DHT22;4452;50.756;4.472;2022-08-19T06:31:45;17.30;99.90
8832;DHT22;4452;50.756;4.472;2022-08-19T06:34:12;17.40;99.90
8832;DHT22;4452;50.756;4.472;2022-08-19T06:36:41;17.30;99.90
8832;DHT22;4452;50.756;4.472;2022-08-19T06:39:12;17.30;99.90
8832;DHT22;4452;50.756;4.472;2022-08-19T06:41:41;17.40;99.90
8832;DHT22;4452;50.756;4.472;2022-08-19T06:44:08;17.50;99.90
8832;DHT22;4452;50.756;4.472;2022-08-19T06:46:34;17.70;99.90
8832;DHT22;4452;50.756;4.472;2022-08-19T06:49:00;18.00;99.90
8832;DHT22;4452;50.756;4.472;2022-08-19T06:51:26;18.20;99.90
8832;DHT22;4452;50.756;4.472;2022-08-19T06:53:53;18.10;99.90
8832;DHT22;4452;50.756;4.472;2022-08-19T06:56:22;18.10;99.90
8832;DHT22;4452;50.756;4.472;2022-08-19T06:58:51;18.30;99.90
8832;DHT22;4452;50.756;4.472;2022-08-19T07:01:19;18.40;99.90
8832;DHT22;4452;50.756;4.472;2022-08-19T07:03:45;18.40;99.90
8832;DHT22;4452;50.756;4.472;2022-08-19T07:06:14;18.40;99.90
8832;DHT22;4452;50.756;4.472;2022-08-19T07:08:46;18.40;99.90
8832;DHT22;4452;50.756;4.472;2022-08-19T07:11:15;18.30;99.90
8832;DHT22;4452;50.756;4.472;2022-08-19T07:13:43;18.50;99.90
8832;DHT22;4452;50.756;4.472;2022-08-19T07:16:14;18.50;99.90
8832;DHT22;4452;50.756;4.472;2022-08-19T07:18:40;18.80;99.90
8832;DHT22;4452;50.756;4.472;2022-08-19T07:21:08;19.20;99.90
8832;DHT22;4452;50.756;4.472;2022-08-19T07:23:35;19.10;99.90
8832;DHT22;4452;50.756;4.472;2022-08-19T07:26:06;19.40;99.90
8832;DHT22;4452;50.756;4.472;2022-08-19T07:28:32;19.20;99.90
8832;DHT22;4452;50.756;4.472;2022-08-19T07:30:58;19.30;99.90
8832;DHT22;4452;50.756;4.472;2022-08-19T07:33:23;19.20;99.90
8832;DHT22;4452;50.756;4.472;2022-08-19T07:35:49;18.90;99.90
8832;DHT22;4452;50.756;4.472;2022-08-19T07:38:15;19.10;99.90
8832;DHT22;4452;50.756;4.472;2022-08-19T07:40:41;19.60;99.90
8832;DHT22;4452;50.756;4.472;2022-08-19T07:43:08;19.30;99.90
8832;DHT22;4452;50.756;4.472;2022-08-19T07:45:34;19.50;99.90
8832;DHT22;4452;50.756;4.472;2022-08-19T07:48:00;19.50;99.90
8832;DHT22;4452;50.756;4.472;2022-08-19T07:50:26;19.50;99.90
8832;DHT22;4452;50.756;4.472;2022-08-19T07:52:52;19.40;99.90
8832;DHT22;4452;50.756;4.472;2022-08-19T07:55:24;19.30;99.90
8832;DHT22;4452;50.756;4.472;2022-08-19T07:57:50;19.40;99.90
8832;DHT22;4452;50.756;4.472;2022-08-19T08:00:17;19.50;99.90
8832;DHT22;4452;50.756;4.472;2022-08-19T08:02:43;19.50;99.90
8832;DHT22;4452;50.756;4.472;2022-08-19T08:05:10;19.60;99.90
8832;DHT22;4452;50.756;4.472;2022-08-19T08:07:54;19.70;99.90
8832;DHT22;4452;50.756;4.472;2022-08-19T08:10:38;19.80;99.90
8832;DHT22;4452;50.756;4.472;2022-08-19T08:13:04;19.90;99.90
8832;DHT22;4452;50.756;4.472;2022-08-19T08:15:31;19.70;99.90
8832;DHT22;4452;50.756;4.472;2022-08-19T08:17:57;19.70;99.90
8832;DHT22;4452;50.756;4.472;2022-08-19T08:20:23;19.90;99.90
8832;DHT22;4452;50.756;4.472;2022-08-19T08:22:49;20.10;99.90
8832;DHT22;4452;50.756;4.472;2022-08-19T08:25:35;20.30;99.90
8832;DHT22;4452;50.756;4.472;2022-08-19T08:28:01;20.50;99.90
8832;DHT22;4452;50.756;4.472;2022-08-19T08:30:28;21.00;99.90
8832;DHT22;4452;50.756;4.472;2022-08-19T08:32:54;21.20;99.90
8832;DHT22;4452;50.756;4.472;2022-08-19T08:35:22;21.10;99.90
8832;DHT22;4452;50.756;4.472;2022-08-19T08:37:50;20.90;99.90
8832;DHT22;4452;50.756;4.472;2022-08-19T08:40:38;20.60;99.90
8832;DHT22;4452;50.756;4.472;2022-08-19T08:43:19;20.40;99.90
8832;DHT22;4452;50.756;4.472;2022-08-19T08:48:41;20.80;99.90
8832;DHT22;4452;50.756;4.472;2022-08-19T08:51:16;21.00;99.90
8832;DHT22;4452;50.756;4.472;2022-08-19T08:53:45;21.10;99.90
8832;DHT22;4452;50.756;4.472;2022-08-19T08:56:12;21.10;99.90
8832;DHT22;4452;50.756;4.472;2022-08-19T08:59:06;20.80;99.90
8832;DHT22;4452;50.756;4.472;2022-08-19T09:01:33;20.40;99.90
8832;DHT22;4452;50.756;4.472;2022-08-19T09:03:59;20.40;99.90
8832;DHT22;4452;50.756;4.472;2022-08-19T09:06:36;20.50;99.90
8832;DHT22;4452;50.756;4.472;2022-08-19T09:09:14;20.50;99.90
8832;DHT22;4452;50.756;4.472;2022-08-19T09:14:48;20.50;99.90
8832;DHT22;4452;50.756;4.472;2022-08-19T09:17:14;20.60;99.90
8832;DHT22;4452;50.756;4.472;2022-08-19T09:19:54;21.00;99.90
8832;DHT22;4452;50.756;4.472;2022-08-19T09:22:21;20.60;99.90
8832;DHT22;4452;50.756;4.472;2022-08-19T09:24:49;20.40;99.90
8832;DHT22;4452;50.756;4.472;2022-08-19T09:27:15;20.40;99.90
8832;DHT22;4452;50.756;4.472;2022-08-19T09:29:40;20.70;99.90
8832;DHT22;4452;50.756;4.472;2022-08-19T09:32:06;20.70;99.90
8832;DHT22;4452;50.756;4.472;2022-08-19T09:34:32;21.00;99.90
8832;DHT22;4452;50.756;4.472;2022-08-19T09:36:58;21.10;99.90
8832;DHT22;4452;50.756;4.472;2022-08-19T09:39:25;20.90;99.90
8832;DHT22;4452;50.756;4.472;2022-08-19T09:41:51;20.70;99.90
8832;DHT22;4452;50.756;4.472;2022-08-19T09:44:18;20.70;99.90
8832;DHT22;4452;50.756;4.472;2022-08-19T09:46:46;20.90;99.90
8832;DHT22;4452;50.756;4.472;2022-08-19T09:49:19;20.90;99.90
8832;DHT22;4452;50.756;4.472;2022-08-19T09:51:50;21.10;99.90
8832;DHT22;4452;50.756;4.472;2022-08-19T09:54:17;21.30;99.90
8832;DHT22;4452;50.756;4.472;2022-08-19T09:56:44;20.90;99.90
8832;DHT22;4452;50.756;4.472;2022-08-19T09:59:10;21.10;99.90
8832;DHT22;4452;50.756;4.472;2022-08-19T10:01:38;21.00;99.90
8832;DHT22;4452;50.756;4.472;2022-08-19T10:04:04;21.00;99.90
8832;DHT22;4452;50.756;4.472;2022-08-19T10:06:36;21.10;99.90
8832;DHT22;4452;50.756;4.472;2022-08-19T10:09:03;21.30;99.90
8832;DHT22;4452;50.756;4.472;2022-08-19T10:11:32;21.50;99.90
8832;DHT22;4452;50.756;4.472;2022-08-19T10:13:58;21.80;99.90
8832;DHT22;4452;50.756;4.472;2022-08-19T10:16:25;21.70;99.90
8832;DHT22;4452;50.756;4.472;2022-08-19T10:18:52;21.40;99.90
8832;DHT22;4452;50.756;4.472;2022-08-19T10:21:27;21.20;99.90
8832;DHT22;4452;50.756;4.472;2022-08-19T10:23:56;21.20;99.90
8832;DHT22;4452;50.756;4.472;2022-08-19T10:26:28;21.20;99.90
8832;DHT22;4452;50.756;4.472;2022-08-19T10:28:55;21.00;99.90
8832;DHT22;4452;50.756;4.472;2022-08-19T10:31:23;21.00;99.90
8832;DHT22;4452;50.756;4.472;2022-08-19T10:33:51;21.00;99.90
8832;DHT22;4452;50.756;4.472;2022-08-19T10:36:29;21.00;99.90
8832;DHT22;4452;50.756;4.472;2022-08-19T10:38:58;21.30;99.90
8832;DHT22;4452;50.756;4.472;2022-08-19T10:41:29;21.50;99.90
8832;DHT22;4452;50.756;4.472;2022-08-19T10:43:58;21.70;99.90
8832;DHT22;4452;50.756;4.472;2022-08-19T10:46:26;21.60;99.90
8832;DHT22;4452;50.756;4.472;2022-08-19T10:48:53;21.60;99.90
8832;DHT22;4452;50.756;4.472;2022-08-19T10:51:19;22.00;99.90
8832;DHT22;4452;50.756;4.472;2022-08-19T10:54:04;22.10;99.90
8832;DHT22;4452;50.756;4.472;2022-08-19T10:56:30;21.80;99.90
8832;DHT22;4452;50.756;4.472;2022-08-19T10:59:15;21.60;99.90
8832;DHT22;4452;50.756;4.472;2022-08-19T11:01:44;21.60;99.90
8832;DHT22;4452;50.756;4.472;2022-08-19T11:04:11;21.70;99.90
8832;DHT22;4452;50.756;4.472;2022-08-19T11:06:40;21.70;99.90
8832;DHT22;4452;50.756;4.472;2022-08-19T11:09:07;21.50;99.90
8832;DHT22;4452;50.756;4.472;2022-08-19T11:11:34;21.50;99.90
8832;DHT22;4452;50.756;4.472;2022-08-19T11:14:11;21.60;99.90
8832;DHT22;4452;50.756;4.472;2022-08-19T11:16:37;21.20;99.90
8832;DHT22;4452;50.756;4.472;2022-08-19T11:19:04;21.10;99.90
8832;DHT22;4452;50.756;4.472;2022-08-19T11:21:40;20.90;99.90
8832;DHT22;4452;50.756;4.472;2022-08-19T11:24:08;20.90;99.90
8832;DHT22;4452;50.756;4.472;2022-08-19T11:26:35;20.90;99.90
8832;DHT22;4452;50.756;4.472;2022-08-19T11:29:03;21.00;99.90
8832;DHT22;4452;50.756;4.472;2022-08-19T11:31:31;21.20;99.90
8832;DHT22;4452;50.756;4.472;2022-08-19T11:33:59;21.30;99.90
8832;DHT22;4452;50.756;4.472;2022-08-19T11:36:25;21.80;99.90
8832;DHT22;4452;50.756;4.472;2022-08-19T11:38:52;22.00;99.90
8832;DHT22;4452;50.756;4.472;2022-08-19T11:41:20;22.00;99.90
8832;DHT22;4452;50.756;4.472;2022-08-19T11:43:46;22.40;99.90
8832;DHT22;4452;50.756;4.472;2022-08-19T11:46:13;22.00;99.90
8832;DHT22;4452;50.756;4.472;2022-08-19T11:48:41;21.90;99.90
8832;DHT22;4452;50.756;4.472;2022-08-19T11:51:15;21.80;99.90
8832;DHT22;4452;50.756;4.472;2022-08-19T11:53:45;21.90;99.90
8832;DHT22;4452;50.756;4.472;2022-08-19T11:56:12;22.10;99.90
8832;DHT22;4452;50.756;4.472;2022-08-19T11:58:39;22.70;99.90
8832;DHT22;4452;50.756;4.472;2022-08-19T12:01:15;22.80;99.90
8832;DHT22;4452;50.756;4.472;2022-08-19T12:03:46;22.80;99.90
8832;DHT22;4452;50.756;4.472;2022-08-19T12:06:15;22.80;99.90
8832;DHT22;4452;50.756;4.472;2022-08-19T12:08:41;23.00;99.90
8832;DHT22;4452;50.756;4.472;2022-08-19T12:11:09;23.30;99.90
8832;DHT22;4452;50.756;4.472;2022-08-19T12:13:36;23.60;99.90
8832;DHT22;4452;50.756;4.472;2022-08-19T12:16:11;23.30;99.90
8832;DHT22;4452;50.756;4.472;2022-08-19T12:18:41;23.30;99.90
8832;DHT22;4452;50.756;4.472;2022-08-19T12:21:12;23.60;99.90
8832;DHT22;4452;50.756;4.472;2022-08-19T12:23:40;24.10;99.90
8832;DHT22;4452;50.756;4.472;2022-08-19T12:26:05;24.10;99.90
8832;DHT22;4452;50.756;4.472;2022-08-19T12:28:31;24.10;99.90
8832;DHT22;4452;50.756;4.472;2022-08-19T12:30:57;23.80;99.90
8832;DHT22;4452;50.756;4.472;2022-08-19T12:33:23;23.70;99.90
8832;DHT22;4452;50.756;4.472;2022-08-19T12:35:51;23.60;99.90
8832;DHT22;4452;50.756;4.472;2022-08-19T12:38:18;23.80;99.90
8832;DHT22;4452;50.756;4.472;2022-08-19T12:40:48;24.00;99.90
8832;DHT22;4452;50.756;4.472;2022-08-19T12:43:15;24.00;99.90
8832;DHT22;4452;50.756;4.472;2022-08-19T12:45:41;24.20;99.90
8832;DHT22;4452;50.756;4.472;2022-08-19T12:48:08;24.20;99.90
8832;DHT22;4452;50.756;4.472;2022-08-19T12:50:34;24.30;99.90
8832;DHT22;4452;50.756;4.472;2022-08-19T12:53:00;24.50;99.90
8832;DHT22;4452;50.756;4.472;2022-08-19T12:55:25;24.50;99.90
8832;DHT22;4452;50.756;4.472;2022-08-19T12:57:53;24.50;99.90
8832;DHT22;4452;50.756;4.472;2022-08-19T13:00:21;24.80;99.90
8832;DHT22;4452;50.756;4.472;2022-08-19T13:02:49;24.90;99.90
8832;DHT22;4452;50.756;4.472;2022-08-19T13:05:21;25.40;99.90
8832;DHT22;4452;50.756;4.472;2022-08-19T13:07:49;25.00;99.90
8832;DHT22;4452;50.756;4.472;2022-08-19T13:10:17;24.90;99.90
8832;DHT22;4452;50.756;4.472;2022-08-19T13:12:47;25.70;99.90
8832;DHT22;4452;50.756;4.472;2022-08-19T13:15:13;25.90;99.90
8832;DHT22;4452;50.756;4.472;2022-08-19T13:17:40;25.20;99.90
8832;DHT22;4452;50.756;4.472;2022-08-19T13:20:10;24.70;99.90
8832;DHT22;4452;50.756;4.472;2022-08-19T13:22:37;24.10;99.90
8832;DHT22;4452;50.756;4.472;2022-08-19T13:25:06;24.40;99.90
8832;DHT22;4452;50.756;4.472;2022-08-19T13:27:33;24.10;99.90
8832;DHT22;4452;50.756;4.472;2022-08-19T13:30:00;24.30;99.90
8832;DHT22;4452;50.756;4.472;2022-08-19T13:32:44;24.30;99.90
8832;DHT22;4452;50.756;4.472;2022-08-19T13:35:28;24.50;99.90
8832;DHT22;4452;50.756;4.472;2022-08-19T13:37:53;24.50;99.90
8832;DHT22;4452;50.756;4.472;2022-08-19T13:40:23;24.90;99.90
8832;DHT22;4452;50.756;4.472;2022-08-19T13:42:51;25.20;99.90
8832;DHT22;4452;50.756;4.472;2022-08-19T13:45:21;25.10;99.90
8832;DHT22;4452;50.756;4.472;2022-08-19T13:47:50;25.40;99.90
8832;DHT22;4452;50.756;4.472;2022-08-19T13:50:21;26.10;99.90
8832;DHT22;4452;50.756;4.472;2022-08-19T13:52:47;26.70;99.90
8832;DHT22;4452;50.756;4.472;2022-08-19T13:55:14;26.50;99.90
8832;DHT22;4452;50.756;4.472;2022-08-19T13:57:40;26.50;99.90
8832;DHT22;4452;50.756;4.472;2022-08-19T14:00:13;26.00;99.90
8832;DHT22;4452;50.756;4.472;2022-08-19T14:02:39;25.50;99.90
8832;DHT22;4452;50.756;4.472;2022-08-19T14:05:09;25.70;99.90
8832;DHT22;4452;50.756;4.472;2022-08-19T14:07:34;25.30;99.90
8832;DHT22;4452;50.756;4.472;2022-08-19T14:10:02;25.40;99.90
8832;DHT22;4452;50.756;4.472;2022-08-19T14:12:28;25.10;99.90
8832;DHT22;4452;50.756;4.472;2022-08-19T14:14:54;24.80;99.90
8832;DHT22;4452;50.756;4.472;2022-08-19T14:17:19;24.60;99.90
8832;DHT22;4452;50.756;4.472;2022-08-19T14:19:45;24.30;99.90
8832;DHT22;4452;50.756;4.472;2022-08-19T14:22:11;24.30;99.90
8832;DHT22;4452;50.756;4.472;2022-08-19T14:24:39;24.20;99.90
8832;DHT22;4452;50.756;4.472;2022-08-19T14:27:06;23.60;99.90
8832;DHT22;4452;50.756;4.472;2022-08-19T14:29:32;23.00;99.90
8832;DHT22;4452;50.756;4.472;2022-08-19T14:31:58;22.50;99.90
8832;DHT22;4452;50.756;4.472;2022-08-19T14:34:25;22.30;99.90
8832;DHT22;4452;50.756;4.472;2022-08-19T14:36:52;22.20;99.90
8832;DHT22;4452;50.756;4.472;2022-08-19T14:39:18;21.90;99.90
8832;DHT22;4452;50.756;4.472;2022-08-19T14:41:44;22.00;99.90
8832;DHT22;4452;50.756;4.472;2022-08-19T14:44:11;21.90;99.90
8832;DHT22;4452;50.756;4.472;2022-08-19T14:46:38;22.00;99.90
8832;DHT22;4452;50.756;4.472;2022-08-19T14:49:06;21.90;99.90
8832;DHT22;4452;50.756;4.472;2022-08-19T14:51:33;22.20;99.90
8832;DHT22;4452;50.756;4.472;2022-08-19T14:53:59;22.20;99.90
8832;DHT22;4452;50.756;4.472;2022-08-19T14:56:29;22.60;99.90
8832;DHT22;4452;50.756;4.472;2022-08-19T14:58:56;22.90;99.90
8832;DHT22;4452;50.756;4.472;2022-08-19T15:01:25;23.60;99.90
8832;DHT22;4452;50.756;4.472;2022-08-19T15:03:52;23.70;99.90
8832;DHT22;4452;50.756;4.472;2022-08-19T15:06:23;24.00;99.90
8832;DHT22;4452;50.756;4.472;2022-08-19T15:08:49;24.80;99.90
8832;DHT22;4452;50.756;4.472;2022-08-19T15:11:19;25.10;99.90
8832;DHT22;4452;50.756;4.472;2022-08-19T15:13:47;26.30;99.90
8832;DHT22;4452;50.756;4.472;2022-08-19T15:16:14;25.20;99.90
8832;DHT22;4452;50.756;4.472;2022-08-19T15:18:43;23.80;99.90
8832;DHT22;4452;50.756;4.472;2022-08-19T15:21:11;23.40;99.90
8832;DHT22;4452;50.756;4.472;2022-08-19T15:23:42;23.30;99.90
8832;DHT22;4452;50.756;4.472;2022-08-19T15:26:07;23.30;99.90
8832;DHT22;4452;50.756;4.472;2022-08-19T15:28:34;23.60;99.90
8832;DHT22;4452;50.756;4.472;2022-08-19T15:31:00;23.60;99.90
8832;DHT22;4452;50.756;4.472;2022-08-19T15:33:26;23.30;99.90
8832;DHT22;4452;50.756;4.472;2022-08-19T15:35:52;22.90;99.90
8832;DHT22;4452;50.756;4.472;2022-08-19T15:38:19;22.90;99.90
8832;DHT22;4452;50.756;4.472;2022-08-19T15:40:47;22.90;99.90
8832;DHT22;4452;50.756;4.472;2022-08-19T15:43:14;22.80;99.90
8832;DHT22;4452;50.756;4.472;2022-08-19T15:45:41;23.10;99.90
8832;DHT22;4452;50.756;4.472;2022-08-19T15:48:07;23.50;99.90
8832;DHT22;4452;50.756;4.472;2022-08-19T15:50:33;23.80;99.90
8832;DHT22;4452;50.756;4.472;2022-08-19T15:53:06;24.50;99.90
8832;DHT22;4452;50.756;4.472;2022-08-19T15:55:36;24.70;99.90
8832;DHT22;4452;50.756;4.472;2022-08-19T15:58:07;24.50;99.90
8832;DHT22;4452;50.756;4.472;2022-08-19T16:00:52;25.60;99.90
8832;DHT22;4452;50.756;4.472;2022-08-19T16:03:36;26.40;99.90
8832;DHT22;4452;50.756;4.472;2022-08-19T16:06:20;26.50;99.90
8832;DHT22;4452;50.756;4.472;2022-08-19T16:08:57;25.40;99.90
8832;DHT22;4452;50.756;4.472;2022-08-19T16:11:26;24.90;99.90
8832;DHT22;4452;50.756;4.472;2022-08-19T16:13:53;25.30;99.90
8832;DHT22;4452;50.756;4.472;2022-08-19T16:16:25;25.60;99.90